Time;durP1;ratioP1;P1;durP2;ratioP2;P2;SDS_P1;SDS_P2;PMS_P1;PMS_P2;Temp;Humidity;BMP_temperature;BMP_pressure;BME280_temperature;BME280_humidity;BME280_pressure;Samples;Min_cycle;Max_cycle;Signal;HPM_P1;HPM_P2
2023/03/15 00:00:21;;;;;;;8.60;2.90;;;;;-1.40;93514.00;;;;7398908;19;20128;-78
2023/03/15 00:02:54;;;;;;;10.23;2.30;;;;;-1.40;93514.00;;;;7398826;19;20176;-78
2023/03/15 00:05:35;;;;;;;5.33;2.50;;;;;-1.40;93519.00;;;;7396835;19;20165;-78
2023/03/15 00:08:11;;;;;;;4.50;2.63;;;;;-1.30;93524.00;;;;7399373;19;20153;-78
2023/03/15 00:10:47;;;;;;;6.73;2.20;;;;;-1.60;93529.00;;;;7399188;19;20591;-77
2023/03/15 00:13:17;;;;;;;6.13;2.47;;;;;-1.50;93527.00;;;;7399189;19;20529;-77
2023/03/15 00:15:55;;;;;;;9.93;3.10;;;;;-1.50;93534.00;;;;7399512;19;20132;-78
2023/03/15 00:18:32;;;;;;;5.17;2.57;;;;;-1.50;93531.00;;;;7399881;19;20143;-77
2023/03/15 00:21:09;;;;;;;8.00;2.63;;;;;-1.50;93537.00;;;;7398956;19;20206;-78
2023/03/15 00:23:44;;;;;;;5.63;2.80;;;;;-1.50;93531.00;;;;7398545;19;20173;-78
2023/03/15 00:26:18;;;;;;;6.73;2.67;;;;;-1.50;93548.00;;;;7396415;19;20141;-77
2023/03/15 00:28:52;;;;;;;6.83;3.07;;;;;-1.70;93554.00;;;;7386290;19;20140;-75
2023/03/15 00:31:26;;;;;;;7.37;2.83;;;;;-1.70;93559.00;;;;7398442;19;20139;-77
2023/03/15 00:34:00;;;;;;;14.33;3.10;;;;;-1.80;93571.00;;;;7394948;19;20599;-75
2023/03/15 00:36:27;;;;;;;14.90;2.80;;;;;-1.80;93573.00;;;;7391533;19;20129;-77
2023/03/15 00:39:02;;;;;;;5.67;2.17;;;;;-1.90;93587.00;;;;7398639;19;20120;-77
2023/03/15 00:41:36;;;;;;;8.20;2.87;;;;;-1.90;93579.00;;;;7397748;19;20149;-77
2023/03/15 00:44:10;;;;;;;4.93;2.50;;;;;-1.80;93588.00;;;;7398529;19;20610;-77
2023/03/15 00:46:44;;;;;;;5.93;2.07;;;;;-2.00;93586.00;;;;7397465;19;20133;-77
2023/03/15 00:49:13;;;;;;;6.27;2.07;;;;;-2.00;93589.00;;;;7398501;19;20604;-77
2023/03/15 00:51:47;;;;;;;10.27;2.40;;;;;-1.90;93580.00;;;;7398080;19;20588;-75
2023/03/15 00:54:14;;;;;;;6.73;1.97;;;;;-1.90;93594.00;;;;7397281;19;20162;-75
2023/03/15 00:56:48;;;;;;;5.60;2.50;;;;;-1.90;93586.00;;;;7398462;19;20153;-75
2023/03/15 00:59:16;;;;;;;5.80;2.20;;;;;-2.10;93600.00;;;;7396647;19;20628;-76
2023/03/15 01:01:51;;;;;;;8.30;2.13;;;;;-2.00;93595.00;;;;7396698;19;20538;-76
2023/03/15 01:04:25;;;;;;;7.23;2.07;;;;;-2.00;93597.00;;;;7391221;19;20208;-76
2023/03/15 01:07:06;;;;;;;6.87;2.00;;;;;-2.00;93595.00;;;;7394787;19;20140;-76
2023/03/15 01:09:43;;;;;;;4.50;2.03;;;;;-2.00;93598.00;;;;7397120;19;20146;-76
2023/03/15 01:12:13;;;;;;;5.57;1.73;;;;;-2.00;93590.00;;;;7397288;19;20129;-76
2023/03/15 01:14:49;;;;;;;7.43;1.97;;;;;-2.10;93603.00;;;;7397280;19;20117;-76
2023/03/15 01:17:18;;;;;;;7.50;1.90;;;;;-2.00;93598.00;;;;7397463;19;20121;-76
2023/03/15 01:19:54;;;;;;;5.63;1.80;;;;;-2.00;93614.00;;;;7396997;19;20121;-76
2023/03/15 01:22:24;;;;;;;7.83;2.60;;;;;-2.00;93602.00;;;;7397080;19;20121;-77
2023/03/15 01:24:58;;;;;;;5.07;2.60;;;;;-2.10;93606.00;;;;7397053;19;20135;-77
2023/03/15 01:27:27;;;;;;;9.30;2.77;;;;;-2.00;93606.00;;;;7395504;19;20128;-77
2023/03/15 01:29:54;;;;;;;5.80;2.77;;;;;-2.10;93614.00;;;;7396810;19;20464;-76
2023/03/15 01:32:28;;;;;;;8.33;3.07;;;;;-2.10;93624.00;;;;7395335;19;20142;-77
2023/03/15 01:35:02;;;;;;;7.90;3.57;;;;;-2.00;93614.00;;;;7395054;19;20161;-77
2023/03/15 01:37:30;;;;;;;6.17;3.13;;;;;-2.00;93627.00;;;;7388657;19;20120;-76
2023/03/15 01:40:05;;;;;;;5.50;3.13;;;;;-2.10;93614.00;;;;7397199;19;20117;-76
2023/03/15 01:42:50;;;;;;;7.93;3.27;;;;;-2.10;93618.00;;;;7395071;19;20157;-76
2023/03/15 01:45:52;;;;;;;8.00;2.90;;;;;-2.00;93616.00;;;;7395749;19;20599;-76
2023/03/15 01:48:24;;;;;;;12.83;3.53;;;;;-2.10;93613.00;;;;7396753;19;20117;-77
2023/03/15 01:51:02;;;;;;;8.27;3.43;;;;;-2.10;93627.00;;;;7403507;19;20120;-76
2023/03/15 01:53:31;;;;;;;7.93;3.57;;;;;-2.10;93622.00;;;;7402407;19;20480;-76
2023/03/15 01:56:06;;;;;;;4.87;3.37;;;;;-2.20;93616.00;;;;7403760;19;20655;-76
2023/03/15 01:58:34;;;;;;;9.30;3.47;;;;;-2.30;93623.00;;;;7404027;19;20614;-76
2023/03/15 02:01:16;;;;;;;9.73;3.70;;;;;-2.40;93626.00;;;;7394874;19;20206;-74
2023/03/15 02:03:55;;;;;;;11.30;4.07;;;;;-2.40;93631.00;;;;7403823;19;20126;-74
2023/03/15 02:06:33;;;;;;;10.30;3.47;;;;;-2.40;93643.00;;;;7402156;19;20582;-75
2023/03/15 02:09:13;;;;;;;10.93;4.07;;;;;-2.30;93639.00;;;;7402576;19;20131;-76
2023/03/15 02:11:57;;;;;;;6.00;3.93;;;;;-2.30;93647.00;;;;7403090;19;20150;-75
2023/03/15 02:14:24;;;;;;;9.73;4.70;;;;;-2.30;93647.00;;;;7403217;19;20152;-73
2023/03/15 02:17:01;;;;;;;11.73;4.70;;;;;-2.30;93651.00;;;;7403677;19;20145;-74
2023/03/15 02:19:52;;;;;;;10.87;4.97;;;;;-2.30;93651.00;;;;7401927;19;20604;-77
2023/03/15 02:22:35;;;;;;;16.93;4.83;;;;;-2.40;93656.00;;;;7404067;19;20112;-74
2023/03/15 02:25:25;;;;;;;13.00;4.63;;;;;-2.30;93656.00;;;;7404801;19;20140;-74
2023/03/15 02:27:59;;;;;;;11.03;5.20;;;;;-2.40;93658.00;;;;7401859;19;20123;-74
2023/03/15 02:30:34;;;;;;;9.00;4.97;;;;;-2.30;93659.00;;;;7404443;19;20121;-74
2023/03/15 02:33:06;;;;;;;13.87;4.70;;;;;-2.30;93664.00;;;;7402481;19;20136;-75
2023/03/15 02:35:40;;;;;;;12.97;5.23;;;;;-2.40;93673.00;;;;7402395;19;20139;-75
2023/03/15 02:38:07;;;;;;;13.53;5.87;;;;;-2.30;93677.00;;;;7402108;19;20129;-75
2023/03/15 02:40:43;;;;;;;13.00;6.10;;;;;-2.30;93678.00;;;;7401993;19;20136;-75
2023/03/15 02:43:21;;;;;;;11.80;5.93;;;;;-2.20;93680.00;;;;7402734;19;20135;-75
2023/03/15 02:45:49;;;;;;;12.93;6.10;;;;;-2.10;93679.00;;;;7402224;19;20196;-74
2023/03/15 02:48:24;;;;;;;12.47;6.53;;;;;-2.20;93691.00;;;;7404034;19;20124;-74
2023/03/15 02:50:51;;;;;;;15.33;5.80;;;;;-2.20;93689.00;;;;7402183;19;20166;-75
2023/03/15 02:53:31;;;;;;;11.70;5.83;;;;;-2.20;93700.00;;;;7400287;19;20120;-77
2023/03/15 02:55:59;;;;;;;11.73;6.63;;;;;-2.10;93697.00;;;;7403484;19;20157;-73
2023/03/15 02:58:33;;;;;;;11.20;5.40;;;;;-2.10;93715.00;;;;7401273;19;20145;-75
2023/03/15 03:01:01;;;;;;;15.90;5.50;;;;;-2.00;93714.00;;;;7398497;19;20188;-73
2023/03/15 03:03:43;;;;;;;15.67;6.17;;;;;-1.70;93721.00;;;;7401356;19;20609;-75
2023/03/15 03:06:12;;;;;;;13.97;6.40;;;;;-1.80;93715.00;;;;7403281;19;20139;-74
2023/03/15 03:08:47;;;;;;;13.43;6.60;;;;;-1.70;93728.00;;;;7403234;19;20133;-74
2023/03/15 03:11:15;;;;;;;12.10;5.77;;;;;-1.60;93729.00;;;;7400844;19;20137;-77
2023/03/15 03:13:50;;;;;;;17.67;6.13;;;;;-1.70;93733.00;;;;7401945;19;20133;-74
2023/03/15 03:16:25;;;;;;;14.10;6.70;;;;;-1.80;93739.00;;;;7400518;19;20127;-74
2023/03/15 03:18:53;;;;;;;12.97;5.70;;;;;-1.60;93742.00;;;;7402649;19;20133;-74
2023/03/15 03:21:27;;;;;;;15.77;6.77;;;;;-1.50;93753.00;;;;7399315;19;20145;-75
2023/03/15 03:24:01;;;;;;;15.37;6.17;;;;;-1.50;93750.00;;;;7398541;19;20628;-80
2023/03/15 03:26:36;;;;;;;14.80;6.97;;;;;-1.50;93757.00;;;;7398705;19;20141;-75
2023/03/15 03:29:10;;;;;;;15.83;6.80;;;;;-1.40;93765.00;;;;7402190;19;20116;-74
2023/03/15 03:31:44;;;;;;;11.87;6.13;;;;;-1.50;93766.00;;;;7400553;19;20151;-74
2023/03/15 03:34:18;;;;;;;10.60;6.23;;;;;-1.60;93770.00;;;;7401507;19;20132;-74
2023/03/15 03:36:52;;;;;;;11.70;5.60;;;;;-1.60;93777.00;;;;7399931;19;20162;-74
2023/03/15 03:39:26;;;;;;;18.93;5.83;;;;;-1.70;93774.00;;;;7400088;19;20136;-75
2023/03/15 03:41:53;;;;;;;13.53;6.27;;;;;-1.80;93771.00;;;;7401204;19;20182;-75
2023/03/15 03:44:27;;;;;;;12.13;5.33;;;;;-1.70;93775.00;;;;7399830;19;20140;-74
2023/03/15 03:46:56;;;;;;;8.83;5.00;;;;;-1.70;93773.00;;;;7396543;19;20185;-80
2023/03/15 03:49:23;;;;;;;12.33;4.93;;;;;-1.80;93771.00;;;;7401579;19;20239;-74
2023/03/15 03:51:59;;;;;;;10.47;4.73;;;;;-1.80;93779.00;;;;7400563;19;20790;-76
2023/03/15 03:54:36;;;;;;;11.97;4.43;;;;;-2.00;93781.00;;;;7401448;19;20788;-75
2023/03/15 03:57:13;;;;;;;11.33;4.60;;;;;-2.10;93785.00;;;;7402734;19;20459;-75
2023/03/15 03:59:47;;;;;;;11.50;4.73;;;;;-2.00;93788.00;;;;7400617;19;20132;-76
2023/03/15 04:02:28;;;;;;;13.60;4.97;;;;;-2.00;93795.00;;;;7394631;19;20246;-74
2023/03/15 04:05:03;;;;;;;10.03;5.20;;;;;-2.30;93798.00;;;;7403232;19;20125;-74
2023/03/15 04:07:37;;;;;;;11.80;4.63;;;;;-2.50;93791.00;;;;7399018;19;20139;-74
2023/03/15 04:10:14;;;;;;;10.23;4.50;;;;;-2.50;93795.00;;;;7400500;19;20120;-74
2023/03/15 04:12:47;;;;;;;10.93;4.67;;;;;-2.50;93805.00;;;;7398311;19;20141;-75
2023/03/15 04:15:23;;;;;;;18.57;5.00;;;;;-2.40;93808.00;;;;7401244;19;20116;-74
2023/03/15 04:17:56;;;;;;;15.67;4.93;;;;;-2.40;93799.00;;;;7401083;19;20160;-74
2023/03/15 04:20:33;;;;;;;15.50;4.83;;;;;-2.30;93809.00;;;;7400735;19;20121;-75
2023/03/15 04:23:08;;;;;;;11.60;4.90;;;;;-2.40;93811.00;;;;7400045;19;20128;-74
2023/03/15 04:25:36;;;;;;;13.47;5.20;;;;;-2.30;93811.00;;;;7400532;19;20153;-74
2023/03/15 04:28:10;;;;;;;12.63;4.93;;;;;-2.20;93820.00;;;;7398288;19;20124;-74
2023/03/15 04:30:46;;;;;;;15.43;5.47;;;;;-2.30;93819.00;;;;7398168;19;20144;-73
2023/03/15 04:33:23;;;;;;;16.53;5.27;;;;;-2.40;93822.00;;;;7400808;19;20162;-74
2023/03/15 04:35:58;;;;;;;10.13;5.33;;;;;-2.70;93812.00;;;;7400287;19;20190;-73
2023/03/15 04:38:33;;;;;;;14.23;4.97;;;;;-2.80;93815.00;;;;7400913;19;20126;-75
2023/03/15 04:41:09;;;;;;;11.70;4.70;;;;;-2.80;93818.00;;;;7397665;19;20459;-74
2023/03/15 04:43:44;;;;;;;13.80;4.83;;;;;-3.00;93821.00;;;;7398932;19;20584;-76
2023/03/15 04:46:11;;;;;;;16.23;4.53;;;;;-3.00;93820.00;;;;7399183;19;20491;-75
2023/03/15 04:48:47;;;;;;;14.97;4.57;;;;;-3.20;93835.00;;;;7391201;19;20155;-75
2023/03/15 04:51:20;;;;;;;6.43;4.37;;;;;-3.20;93818.00;;;;7400288;19;20116;-74
2023/03/15 04:53:48;;;;;;;6.73;3.90;;;;;-3.30;93828.00;;;;7400500;19;20153;-76
2023/03/15 04:56:24;;;;;;;13.53;4.67;;;;;-3.40;93822.00;;;;7398731;19;20128;-75
2023/03/15 04:58:51;;;;;;;12.63;4.30;;;;;-3.50;93824.00;;;;7399653;19;20176;-75
2023/03/15 05:01:36;;;;;;;11.93;3.67;;;;;-3.60;93834.00;;;;7399227;19;20178;-74
2023/03/15 05:04:17;;;;;;;10.60;3.80;;;;;-3.50;93831.00;;;;7400403;19;20617;-75
2023/03/15 05:06:53;;;;;;;13.80;4.73;;;;;-3.50;93834.00;;;;7400000;19;20144;-75
2023/03/15 05:09:21;;;;;;;9.10;4.33;;;;;-3.40;93833.00;;;;7399782;19;20164;-74
2023/03/15 05:11:55;;;;;;;17.93;5.90;;;;;-3.30;93822.00;;;;7400180;19;20135;-75
2023/03/15 05:14:29;;;;;;;16.00;3.93;;;;;-3.20;93821.00;;;;7400091;19;20149;-74
2023/03/15 05:17:03;;;;;;;14.03;4.43;;;;;-3.10;93823.00;;;;7400440;19;20120;-75
2023/03/15 05:19:37;;;;;;;11.57;4.27;;;;;-3.10;93823.00;;;;7388771;19;20120;-74
2023/03/15 05:22:06;;;;;;;15.37;3.97;;;;;-3.20;93820.00;;;;7396645;19;20144;-76
2023/03/15 05:25:00;;;;;;;17.67;4.07;;;;;-3.10;93826.00;;;;7406850;19;20136;-75
2023/03/15 05:27:32;;;;;;;8.37;3.60;;;;;-3.10;93829.00;;;;7405419;19;20160;-81
2023/03/15 05:30:13;;;;;;;14.03;4.03;;;;;-3.20;93826.00;;;;7405961;19;20203;-75
2023/03/15 05:32:43;;;;;;;14.27;4.37;;;;;-3.30;93839.00;;;;7406610;19;20141;-80
2023/03/15 05:35:21;;;;;;;13.40;3.73;;;;;-3.30;93831.00;;;;7406384;19;20456;-79
2023/03/15 05:37:56;;;;;;;15.13;3.47;;;;;-3.30;93834.00;;;;7404739;19;20554;-79
2023/03/15 05:40:31;;;;;;;17.73;4.13;;;;;-3.40;93832.00;;;;7403738;19;20460;-77
2023/03/15 05:43:06;;;;;;;11.83;4.03;;;;;-3.50;93838.00;;;;7405242;19;20542;-75
2023/03/15 05:45:43;;;;;;;10.13;3.50;;;;;-3.50;93839.00;;;;7406043;19;20493;-76
2023/03/15 05:48:11;;;;;;;14.03;3.90;;;;;-3.60;93837.00;;;;7405337;19;20128;-76
2023/03/15 05:50:46;;;;;;;11.43;3.80;;;;;-3.60;93840.00;;;;7404058;19;20754;-75
2023/03/15 05:53:14;;;;;;;13.40;3.90;;;;;-3.60;93839.00;;;;7407293;19;20120;-76
2023/03/15 05:55:48;;;;;;;17.20;3.67;;;;;-3.40;93842.00;;;;7407002;19;20578;-76
2023/03/15 05:58:15;;;;;;;12.03;3.57;;;;;-3.20;93851.00;;;;7400340;19;20455;-76
2023/03/15 06:00:56;;;;;;;13.63;3.63;;;;;-3.00;93847.00;;;;7403000;19;20175;-75
2023/03/15 06:03:31;;;;;;;19.63;3.43;;;;;-2.90;93852.00;;;;7401122;19;20447;-75
2023/03/15 06:06:05;;;;;;;14.70;4.03;;;;;-3.00;93850.00;;;;7404635;19;20136;-75
2023/03/15 06:08:32;;;;;;;18.73;3.60;;;;;-2.80;93854.00;;;;7403340;19;20133;-75
2023/03/15 06:11:08;;;;;;;12.37;3.27;;;;;-2.80;93850.00;;;;7406476;19;20136;-75
2023/03/15 06:13:42;;;;;;;9.77;3.50;;;;;-2.70;93848.00;;;;7402460;19;20611;-74
2023/03/15 06:16:10;;;;;;;10.40;3.87;;;;;-2.60;93849.00;;;;7401812;19;20155;-75
2023/03/15 06:18:44;;;;;;;14.73;3.03;;;;;-2.50;93858.00;;;;7406081;19;20128;-75
2023/03/15 06:21:11;;;;;;;9.67;2.63;;;;;-2.30;93853.00;;;;7404821;19;20601;-74
2023/03/15 06:23:46;;;;;;;16.50;3.37;;;;;-2.30;93854.00;;;;7405933;19;20614;-75
2023/03/15 06:26:14;;;;;;;11.50;2.80;;;;;-2.20;93851.00;;;;7404209;19;20147;-75
2023/03/15 06:28:47;;;;;;;11.30;3.13;;;;;-2.10;93863.00;;;;7402386;19;20138;-75
2023/03/15 06:31:15;;;;;;;20.83;3.47;;;;;-2.00;93853.00;;;;7404762;19;20129;-75
2023/03/15 06:33:49;;;;;;;11.67;2.27;;;;;-1.90;93853.00;;;;7405698;19;20132;-75
2023/03/15 06:36:24;;;;;;;13.40;2.80;;;;;-1.90;93854.00;;;;7401600;19;20149;-75
2023/03/15 06:38:59;;;;;;;14.37;3.07;;;;;-1.80;93857.00;;;;7404414;19;20629;-74
2023/03/15 06:41:33;;;;;;;8.87;2.50;;;;;-1.70;93857.00;;;;7403711;19;20147;-75
2023/03/15 06:44:09;;;;;;;21.23;3.07;;;;;-1.60;93864.00;;;;7400240;19;20197;-75
2023/03/15 06:46:44;;;;;;;12.63;2.70;;;;;-1.50;93867.00;;;;7403701;19;20138;-75
2023/03/15 06:49:18;;;;;;;12.57;3.13;;;;;-1.50;93868.00;;;;7405327;19;20187;-75
2023/03/15 06:51:45;;;;;;;11.17;2.53;;;;;-1.50;93871.00;;;;7402453;19;20124;-75
2023/03/15 06:54:13;;;;;;;14.20;2.67;;;;;-1.30;93875.00;;;;7398472;19;20141;-75
2023/03/15 06:56:47;;;;;;;12.90;2.57;;;;;-1.20;93881.00;;;;7403120;19;20140;-76
2023/03/15 06:59:21;;;;;;;20.07;2.93;;;;;-1.20;93879.00;;;;7403698;19;20129;-78
2023/03/15 07:02:01;;;;;;;14.20;2.60;;;;;-1.00;93882.00;;;;7400251;19;20183;-74
2023/03/15 07:04:35;;;;;;;14.20;2.67;;;;;-0.80;93886.00;;;;7403678;19;20616;-74
2023/03/15 07:07:12;;;;;;;12.50;2.80;;;;;-0.80;93875.00;;;;7402087;19;20149;-74
2023/03/15 07:09:40;;;;;;;8.17;2.30;;;;;-0.50;93878.00;;;;7401363;19;20129;-74
2023/03/15 07:12:14;;;;;;;5.13;1.97;;;;;-0.40;93876.00;;;;7400207;19;20480;-77
2023/03/15 07:14:48;;;;;;;10.97;2.70;;;;;-0.20;93885.00;;;;7402585;19;20162;-75
2023/03/15 07:17:25;;;;;;;8.60;2.03;;;;;0.10;93885.00;;;;7400658;19;20143;-75
2023/03/15 07:20:00;;;;;;;11.90;1.80;;;;;0.50;93896.00;;;;7402601;19;20141;-75
2023/03/15 07:22:27;;;;;;;9.60;2.17;;;;;0.80;93898.00;;;;7402682;19;20147;-75
2023/03/15 07:25:01;;;;;;;12.77;1.70;;;;;1.10;93893.00;;;;7403328;19;20164;-76
2023/03/15 07:27:35;;;;;;;12.23;1.83;;;;;1.20;93897.00;;;;7403338;19;20140;-77
2023/03/15 07:30:10;;;;;;;6.77;1.60;;;;;0.80;93910.00;;;;7401616;19;20487;-75
2023/03/15 07:32:38;;;;;;;9.37;2.00;;;;;1.00;93914.00;;;;7402390;19;20165;-76
2023/03/15 07:35:13;;;;;;;5.10;1.87;;;;;1.10;93905.00;;;;7401898;19;20473;-76
2023/03/15 07:37:48;;;;;;;6.23;1.80;;;;;1.30;93909.00;;;;7401866;19;20132;-75
2023/03/15 07:40:23;;;;;;;3.57;1.43;;;;;1.40;93908.00;;;;7403176;19;20160;-76
2023/03/15 07:42:51;;;;;;;2.67;1.50;;;;;1.70;93902.00;;;;7401457;19;20144;-77
2023/03/15 07:45:25;;;;;;;6.77;1.23;;;;;1.70;93900.00;;;;7401515;19;20513;-80
2023/03/15 07:47:53;;;;;;;9.13;1.40;;;;;1.80;93900.00;;;;7402226;19;20129;-76
2023/03/15 07:50:27;;;;;;;4.63;1.30;;;;;1.90;93903.00;;;;7401443;19;20144;-76
2023/03/15 07:52:55;;;;;;;8.47;1.67;;;;;1.90;93908.00;;;;7402569;19;20128;-76
2023/03/15 07:55:30;;;;;;;7.60;1.10;;;;;1.90;93902.00;;;;7400637;19;20645;-78
2023/03/15 07:58:04;;;;;;;3.87;0.93;;;;;2.30;93903.00;;;;7395064;19;20152;-75
2023/03/15 08:00:38;;;;;;;4.80;0.97;;;;;2.00;93902.00;;;;7399459;19;20195;-75
2023/03/15 08:03:19;;;;;;;2.33;0.87;;;;;2.30;93905.00;;;;7399187;19;20193;-75
2023/03/15 08:05:54;;;;;;;4.10;1.30;;;;;2.50;93905.00;;;;7400302;19;20137;-76
2023/03/15 08:08:26;;;;;;;6.33;1.33;;;;;2.50;93897.00;;;;7400408;19;20591;-76
2023/03/15 08:11:03;;;;;;;7.13;1.10;;;;;2.60;93913.00;;;;7399746;19;20117;-75
2023/03/15 08:13:37;;;;;;;5.53;1.30;;;;;2.90;93908.00;;;;7400480;19;20192;-76
2023/03/15 08:16:05;;;;;;;3.77;1.00;;;;;2.70;93911.00;;;;7399052;19;20144;-75
2023/03/15 08:18:39;;;;;;;2.87;1.33;;;;;3.00;93906.00;;;;7400376;19;20128;-75
2023/03/15 08:21:07;;;;;;;6.87;1.43;;;;;2.80;93895.00;;;;7398061;19;20619;-76
2023/03/15 08:23:41;;;;;;;4.73;1.07;;;;;3.40;93897.00;;;;7397871;19;20145;-76
2023/03/15 08:26:09;;;;;;;5.47;1.10;;;;;3.10;93900.00;;;;7400672;19;20561;-77
2023/03/15 08:28:43;;;;;;;7.43;1.67;;;;;3.30;93916.00;;;;7399286;19;20153;-78
2023/03/15 08:31:12;;;;;;;5.47;1.40;;;;;2.30;93926.00;;;;7398569;19;20149;-77
2023/03/15 08:33:47;;;;;;;2.37;1.00;;;;;2.50;93916.00;;;;7399866;19;20196;-76
2023/03/15 08:36:15;;;;;;;3.03;1.00;;;;;3.00;93902.00;;;;7397377;19;20595;-76
2023/03/15 08:38:50;;;;;;;5.83;1.20;;;;;3.60;93924.00;;;;7397066;19;20140;-76
2023/03/15 08:41:17;;;;;;;5.60;1.50;;;;;3.60;93929.00;;;;7397969;19;20129;-76
2023/03/15 08:43:51;;;;;;;2.47;1.10;;;;;3.30;93930.00;;;;7398575;19;20144;-77
2023/03/15 08:46:26;;;;;;;3.43;1.20;;;;;2.70;93940.00;;;;7397590;19;20144;-76
2023/03/15 08:49:03;;;;;;;3.60;1.10;;;;;1.90;93952.00;;;;7395170;19;20147;-75
2023/03/15 08:51:37;;;;;;;5.80;0.97;;;;;1.80;93945.00;;;;7395153;19;20124;-75
2023/03/15 08:54:13;;;;;;;5.50;1.10;;;;;2.20;93935.00;;;;7397270;19;20153;-76
2023/03/15 08:56:49;;;;;;;4.47;1.30;;;;;2.80;93957.00;;;;7397675;19;20140;-74
2023/03/15 08:59:23;;;;;;;6.47;1.47;;;;;3.00;93936.00;;;;7396635;19;20136;-77
2023/03/15 09:02:00;;;;;;;6.80;1.30;;;;;4.30;93936.00;;;;7395091;19;20183;-77
2023/03/15 09:04:41;;;;;;;5.03;1.10;;;;;5.00;93930.00;;;;7397047;19;20152;-76
2023/03/15 09:07:15;;;;;;;2.17;1.07;;;;;5.20;93932.00;;;;7390345;19;20156;-76
2023/03/15 09:09:49;;;;;;;3.37;0.90;;;;;5.10;93936.00;;;;7396628;19;20143;-77
2023/03/15 09:12:17;;;;;;;3.50;1.30;;;;;4.60;93933.00;;;;7395641;19;20141;-76
2023/03/15 09:14:54;;;;;;;4.57;0.90;;;;;5.10;93929.00;;;;7395941;19;20156;-77
2023/03/15 09:17:21;;;;;;;13.27;1.60;;;;;5.80;93935.00;;;;7397115;19;20481;-76
2023/03/15 09:19:56;;;;;;;4.60;1.30;;;;;6.40;93946.00;;;;7397022;19;20538;-75
2023/03/15 09:22:24;;;;;;;5.00;1.00;;;;;6.30;93937.00;;;;7396585;19;20131;-75
2023/03/15 09:25:07;;;;;;;4.13;0.93;;;;;7.00;93953.00;;;;7396928;19;20147;-76
2023/03/15 09:27:41;;;;;;;6.17;1.43;;;;;7.50;93945.00;;;;7395879;19;20154;-76
2023/03/15 09:30:15;;;;;;;5.03;1.40;;;;;7.00;93962.00;;;;7393978;19;20472;-74
2023/03/15 09:32:44;;;;;;;4.73;1.23;;;;;6.40;93946.00;;;;7396117;19;20148;-76
2023/03/15 09:35:21;;;;;;;4.83;1.40;;;;;6.50;93960.00;;;;7397396;19;20472;-75
2023/03/15 09:37:50;;;;;;;5.10;1.37;;;;;7.40;93955.00;;;;7396316;19;20551;-75
2023/03/15 09:40:29;;;;;;;3.13;1.13;;;;;6.40;93971.00;;;;7396218;19;20145;-75
2023/03/15 09:43:20;;;;;;;1.37;1.07;;;;;5.70;93973.00;;;;7395479;19;20173;-75
2023/03/15 09:46:15;;;;;;;6.33;1.50;;;;;5.70;93973.00;;;;7396308;19;20542;-75
2023/03/15 09:48:58;;;;;;;5.77;1.70;;;;;6.00;93972.00;;;;7395704;19;20133;-75
2023/03/15 09:51:37;;;;;;;4.10;1.00;;;;;6.20;93975.00;;;;7397317;19;20216;-76
2023/03/15 09:54:15;;;;;;;5.30;1.10;;;;;7.70;93961.00;;;;7398155;19;20133;-76
2023/03/15 09:57:02;;;;;;;2.17;0.90;;;;;8.80;93976.00;;;;7396864;19;20140;-75
2023/03/15 09:59:43;;;;;;;2.27;0.90;;;;;6.90;93987.00;;;;7396398;19;20135;-74
2023/03/15 10:02:33;;;;;;;1.53;0.97;;;;;5.30;93973.00;;;;7393055;19;20180;-73
2023/03/15 10:05:23;;;;;;;3.00;0.90;;;;;6.00;93973.00;;;;7389968;19;20159;-74
2023/03/15 10:07:51;;;;;;;3.27;1.30;;;;;8.10;93956.00;;;;7394898;19;20136;-73
2023/03/15 10:10:35;;;;;;;2.77;0.90;;;;;8.00;93980.00;;;;7396405;19;20144;-72
2023/03/15 10:13:21;;;;;;;2.65;0.95;;;;;7.60;93973.00;;;;7402544;19;20522;-73
2023/03/15 10:16:13;;;;;;;5.40;0.90;;;;;6.20;93990.00;;;;7402301;19;20140;-73
2023/03/15 10:19:12;;;;;;;1.63;0.77;;;;;6.00;94002.00;;;;7401714;19;20137;-73
2023/03/15 10:22:13;;;;;;;1.90;0.80;;;;;6.00;93996.00;;;;7402136;19;20125;-73
2023/03/15 10:25:11;;;;;;;4.40;1.00;;;;;5.90;94010.00;;;;7401616;19;20133;-74
2023/03/15 10:27:54;;;;;;;2.53;1.13;;;;;5.70;94000.00;;;;7400870;19;20160;-72
2023/03/15 10:30:34;;;;;;;3.57;1.10;;;;;6.10;93981.00;;;;7398206;19;20165;-73
2023/03/15 10:33:42;;;;;;;1.30;0.70;;;;;6.50;94004.00;;;;7401852;19;20591;-75
2023/03/15 10:36:19;;;;;;;1.80;0.90;;;;;6.70;93999.00;;;;7401011;19;20145;-74
2023/03/15 10:38:54;;;;;;;4.70;0.87;;;;;6.50;94015.00;;;;7402024;19;20163;-74
2023/03/15 10:41:38;;;;;;;1.93;0.77;;;;;6.20;94005.00;;;;7402340;19;20133;-74
2023/03/15 10:44:13;;;;;;;3.07;1.10;;;;;5.70;94017.00;;;;7400853;19;20128;-75
2023/03/15 10:47:18;;;;;;;4.83;0.87;;;;;5.60;94020.00;;;;7401680;19;20136;-73
2023/03/15 10:49:58;;;;;;;2.47;0.93;;;;;5.30;94019.00;;;;7400224;19;20143;-74
2023/03/15 10:52:43;;;;;;;2.07;0.73;;;;;4.80;94008.00;;;;7402226;19;20204;-74
2023/03/15 10:55:38;;;;;;;1.40;0.80;;;;;5.40;94015.00;;;;7395416;19;20144;-74
2023/03/15 10:58:30;;;;;;;1.07;0.70;;;;;5.80;94020.00;;;;7400984;19;20144;-73
2023/03/15 11:01:06;;;;;;;2.73;1.10;;;;;5.10;94029.00;;;;7399412;19;20132;-73
2023/03/15 11:04:01;;;;;;;1.33;0.60;;;;;4.80;94018.00;;;;7397689;19;20235;-74
2023/03/15 11:06:36;;;;;;;1.63;0.90;;;;;4.90;94012.00;;;;7401727;19;20147;-75
2023/03/15 11:09:16;;;;;;;3.40;0.83;;;;;5.20;94018.00;;;;7401762;19;20156;-74
2023/03/15 11:11:56;;;;;;;1.63;1.00;;;;;5.00;94024.00;;;;7400483;19;20140;-75
2023/03/15 11:14:44;;;;;;;1.73;0.70;;;;;4.40;94025.00;;;;7400381;19;20133;-73
2023/03/15 11:17:25;;;;;;;4.70;0.80;;;;;4.80;94036.00;;;;7400994;19;20117;-75
2023/03/15 11:20:15;;;;;;;1.73;0.90;;;;;4.20;94037.00;;;;7401002;19;20530;-75
2023/03/15 11:22:43;;;;;;;3.97;0.93;;;;;4.50;94022.00;;;;7399733;19;20129;-74
2023/03/15 11:25:19;;;;;;;2.50;1.10;;;;;4.30;94031.00;;;;7400015;19;20890;-75
2023/03/15 11:27:54;;;;;;;4.70;1.70;;;;;4.00;94028.00;;;;7400511;19;20139;-75
2023/03/15 11:30:35;;;;;;;2.87;1.00;;;;;4.70;94026.00;;;;7398598;19;20153;-75
2023/03/15 11:33:08;;;;;;;5.33;1.10;;;;;4.90;94025.00;;;;7399124;19;20160;-74
2023/03/15 11:35:48;;;;;;;4.63;1.20;;;;;5.30;94013.00;;;;7400877;19;20121;-75
2023/03/15 11:38:40;;;;;;;2.07;0.80;;;;;5.40;94026.00;;;;7398718;19;20132;-75
2023/03/15 11:41:22;;;;;;;1.37;1.00;;;;;5.40;94010.00;;;;7399335;19;20147;-75
2023/03/15 11:44:18;;;;;;;1.30;0.80;;;;;5.60;94007.00;;;;7399011;19;20526;-73
2023/03/15 11:47:06;;;;;;;2.53;1.03;;;;;6.10;94000.00;;;;7398787;19;20132;-75
2023/03/15 11:49:50;;;;;;;2.10;0.90;;;;;6.20;94015.00;;;;7398257;19;20159;-74
2023/03/15 11:52:28;;;;;;;3.17;1.37;;;;;6.60;94028.00;;;;7398809;19;20129;-74
2023/03/15 11:55:05;;;;;;;3.03;1.17;;;;;4.90;94041.00;;;;7398907;19;20128;-74
2023/03/15 11:57:50;;;;;;;4.03;1.13;;;;;4.70;94029.00;;;;7399376;19;20204;-73
2023/03/15 12:00:33;;;;;;;3.90;1.20;;;;;4.80;94039.00;;;;7398386;19;20467;-73
2023/03/15 12:03:41;;;;;;;1.43;1.03;;;;;4.70;94033.00;;;;7397194;19;20149;-74
2023/03/15 12:06:18;;;;;;;3.00;1.07;;;;;4.80;94023.00;;;;7398426;19;20619;-73
2023/03/15 12:08:54;;;;;;;1.57;0.97;;;;;5.90;94018.00;;;;7398066;19;20208;-74
2023/03/15 12:11:28;;;;;;;2.23;1.27;;;;;6.40;94029.00;;;;7397794;19;20188;-74
2023/03/15 12:14:24;;;;;;;1.50;1.03;;;;;6.10;94038.00;;;;7395266;19;20159;-73
2023/03/15 12:17:15;;;;;;;3.67;1.40;;;;;5.60;94039.00;;;;7396919;19;20501;-74
2023/03/15 12:20:16;;;;;;;3.47;1.00;;;;;4.00;94044.00;;;;7398497;19;20136;-74
2023/03/15 12:22:58;;;;;;;5.40;1.20;;;;;4.10;94053.00;;;;7396219;19;20215;-74
2023/03/15 12:25:43;;;;;;;4.90;1.13;;;;;3.60;94050.00;;;;7397326;19;20624;-74
2023/03/15 12:28:40;;;;;;;2.53;1.30;;;;;3.50;94054.00;;;;7400545;19;20196;-74
2023/03/15 12:31:14;;;;;;;1.83;1.07;;;;;3.20;94051.00;;;;7398245;19;20594;-74
2023/03/15 12:33:57;;;;;;;1.33;0.90;;;;;2.70;94053.00;;;;7395945;19;20133;-75
2023/03/15 12:36:39;;;;;;;2.17;1.23;;;;;2.60;94053.00;;;;7397596;19;20147;-74
2023/03/15 12:39:16;;;;;;;3.33;1.20;;;;;2.90;94054.00;;;;7397446;19;20515;-75
2023/03/15 12:41:51;;;;;;;5.60;1.50;;;;;3.40;94038.00;;;;7397769;19;20136;-73
2023/03/15 12:44:31;;;;;;;3.20;1.33;;;;;3.90;94044.00;;;;7397631;19;20153;-73
2023/03/15 12:47:09;;;;;;;2.63;1.27;;;;;3.40;94048.00;;;;7397261;19;20125;-73
2023/03/15 12:49:42;;;;;;;1.23;0.90;;;;;3.50;94036.00;;;;7397836;19;20141;-74
2023/03/15 12:52:39;;;;;;;1.67;1.10;;;;;3.40;94049.00;;;;7398340;19;20219;-74
2023/03/15 12:55:17;;;;;;;3.80;1.30;;;;;2.90;94065.00;;;;7391549;19;20200;-72
2023/03/15 12:57:55;;;;;;;3.30;1.50;;;;;3.10;94053.00;;;;7397374;19;20145;-74
2023/03/15 13:00:27;;;;;;;3.30;1.40;;;;;2.90;94058.00;;;;7397308;19;20149;-75
2023/03/15 13:03:16;;;;;;;1.80;1.03;;;;;2.90;94066.00;;;;7396540;19;20149;-73